»·PEaware :: N212MH S31-W04

N212MH :: S31-W04

FLIGHT INFORMATION

Flight Status: Arrived
Operator: Privately registered:
United States
More flights under this callsign
Pilot: Erik A. (17503)
Aircraft: AERMACCHI WARRIOR
(F260)
More flights by this aircraft type
Origin: S31 Lopez Island
United States
Destination: W04 Ocean Shores Mun
United States
More flights between these airports :: More routes between these airports
Route: 7WA5 2WA3 KUIL S16 2S9
File this flight plan on PilotEdge
Remarks: Alphabet Challenge Washington Leg #26
Altitude:
(Current/Filed)
4,500ft
Speed:
(Current/Filed)
150kts
Departed: 08-Nov-20 01:03 PM
Arrived: 08-Nov-20 03:06 PM
Distance/Time
Traveled:
101nm/2:02
Distance/Time
To Go:
Arrived

Flight Plot

Page will automatically refresh every two minutes.

Flight plan parsing failed; only flown route is shown


Map Options




Map Legend


Flown Route
Filed Route
Departure Airport
Arrival Airport
Navaid (VOR, NDB)
Fix

Horizontal Profiles

Position Reports

Time Latitude Longitude Heading Altitude Ground
Speed
08-Nov-20 12:36 48.487526 -122.936202 359 202ft 0kts
08-Nov-20 12:37 48.487526 -122.936202 359 202ft 0kts
08-Nov-20 12:38 48.487526 -122.936202 359 202ft 0kts
08-Nov-20 12:39 48.487526 -122.936202 359 202ft 0kts
08-Nov-20 12:40 48.487526 -122.936202 359 202ft 0kts
08-Nov-20 12:41 48.487526 -122.936202 359 202ft 0kts
08-Nov-20 12:42 48.487526 -122.936202 359 202ft 0kts
08-Nov-20 12:43 48.487733 -122.936202 1 202ft 3kts
08-Nov-20 12:44 48.487874 -122.937098 183 207ft 5kts
08-Nov-20 12:45 48.487773 -122.937102 180 207ft 0kts
08-Nov-20 12:46 48.487773 -122.937102 180 207ft 0kts
08-Nov-20 12:47 48.487773 -122.937102 180 207ft 0kts
08-Nov-20 12:48 48.487773 -122.937102 180 207ft 0kts
08-Nov-20 12:49 48.487773 -122.937102 180 207ft 0kts
08-Nov-20 12:51 48.487773 -122.937102 180 207ft 0kts
08-Nov-20 12:52 48.487771 -122.937101 172 207ft 0kts
08-Nov-20 12:53 48.487770 -122.937101 166 207ft 0kts
08-Nov-20 12:54 48.487770 -122.937101 166 207ft 0kts
08-Nov-20 12:55 48.487767 -122.937101 177 207ft 0kts
08-Nov-20 12:56 48.487767 -122.937101 177 207ft 0kts
08-Nov-20 12:57 48.487767 -122.937101 177 207ft 0kts
08-Nov-20 12:58 48.487747 -122.937101 179 207ft 0kts
08-Nov-20 12:59 48.486280 -122.937089 183 200ft 12kts
08-Nov-20 13:00 48.481830 -122.937066 185 178ft 17kts
08-Nov-20 13:01 48.480308 -122.937053 182 169ft 0kts
08-Nov-20 13:02 48.480005 -122.937109 227 168ft 0kts
08-Nov-20 13:03 48.482499 -122.937757 359 183ft 69kts
08-Nov-20 13:04 48.501271 -122.956408 314 1375ft 107kts
08-Nov-20 13:05 48.522540 -122.999242 305 1971ft 148kts
08-Nov-20 13:06 48.545869 -123.053077 306 2472ft 157kts
08-Nov-20 13:07 48.573121 -123.109482 321 2648ft 167kts
08-Nov-20 13:07 48.608545 -123.133479 335 2642ft 167kts
08-Nov-20 13:09 48.663974 -123.163787 345 1306ft 193kts
08-Nov-20 13:09 48.696087 -123.188232 278 1448ft 133kts
08-Nov-20 13:11 48.687692 -123.233734 174 727ft 91kts
08-Nov-20 13:11 48.680661 -123.209237 108 565ft 93kts
08-Nov-20 13:13 48.671659 -123.168065 107 109ft 94kts
08-Nov-20 13:13 48.665718 -123.135169 88 1054ft 109kts
08-Nov-20 13:14 48.649728 -123.096403 157 1880ft 137kts
08-Nov-20 13:15 48.617086 -123.062281 128 2363ft 158kts
08-Nov-20 13:16 48.581737 -123.025957 172 2276ft 165kts
08-Nov-20 13:17 48.533614 -123.017649 172 1103ft 178kts
08-Nov-20 13:18 48.499491 -123.020012 281 1044ft 95kts
08-Nov-20 13:19 48.519319 -123.024170 359 92ft 67kts
08-Nov-20 13:20 48.539981 -123.019088 66 902ft 99kts
08-Nov-20 13:21 48.518717 -122.985581 143 1312ft 144kts
08-Nov-20 13:22 48.480352 -122.952314 165 1258ft 175kts
08-Nov-20 13:23 48.431129 -122.954258 161 1578ft 167kts
08-Nov-20 13:24 48.454682 -122.938066 358 594ft 180kts
08-Nov-20 13:25 48.493063 -122.941387 243 1591ft 102kts
08-Nov-20 13:26 48.464146 -122.952686 163 3313ft 105kts
08-Nov-20 13:27 48.435346 -122.971671 219 4752ft 129kts
08-Nov-20 13:28 48.410504 -123.008683 235 6117ft 136kts
08-Nov-20 13:29 48.380513 -123.038841 200 7433ft 129kts
08-Nov-20 13:30 48.345481 -123.063510 201 8270ft 152kts
08-Nov-20 13:31 48.301180 -123.089399 193 8328ft 182kts
08-Nov-20 13:32 48.250797 -123.109052 187 8348ft 189kts
08-Nov-20 13:33 48.198701 -123.122204 191 8349ft 193kts
08-Nov-20 13:34 48.151827 -123.164115 209 8357ft 197kts
08-Nov-20 13:35 48.106723 -123.214017 244 8349ft 200kts
08-Nov-20 13:36 48.096743 -123.296651 265 8362ft 198kts
08-Nov-20 13:37 48.087711 -123.381557 265 8382ft 200kts
08-Nov-20 13:38 48.078672 -123.466759 265 8408ft 203kts
08-Nov-20 13:39 48.068997 -123.556681 265 8439ft 204kts
08-Nov-20 13:40 48.058893 -123.648606 266 8476ft 206kts
08-Nov-20 13:41 48.048829 -123.740323 265 8481ft 207kts
08-Nov-20 13:42 48.038578 -123.833432 265 8490ft 208kts
08-Nov-20 13:43 48.028465 -123.924118 265 8501ft 209kts
08-Nov-20 13:44 48.018317 -124.016177 265 8520ft 209kts
08-Nov-20 13:45 48.007822 -124.108998 265 8542ft 210kts
08-Nov-20 13:46 47.997518 -124.200232 265 8567ft 208kts
08-Nov-20 13:47 47.987246 -124.290736 265 8591ft 208kts
08-Nov-20 13:48 47.978796 -124.390378 269 6657ft 252kts
08-Nov-20 13:49 47.967963 -124.504050 251 3477ft 234kts
08-Nov-20 13:50 47.940532 -124.594991 247 1706ft 179kts
08-Nov-20 13:51 47.918747 -124.612866 79 2002ft 87kts
08-Nov-20 13:52 47.927315 -124.584957 58 898ft 74kts
08-Nov-20 13:53 47.937038 -124.561614 64 186ft 33kts
08-Nov-20 13:54 47.934578 -124.560654 175 178ft 0kts
08-Nov-20 13:55 47.934578 -124.560654 175 178ft 0kts
08-Nov-20 13:56 47.934578 -124.560654 175 178ft 0kts
08-Nov-20 13:57 47.934578 -124.560654 175 178ft 0kts
08-Nov-20 13:58 47.934578 -124.560654 175 178ft 0kts
08-Nov-20 13:59 47.934578 -124.560654 175 178ft 0kts
08-Nov-20 14:00 47.934578 -124.560654 175 178ft 0kts
08-Nov-20 14:01 47.934578 -124.560654 175 178ft 0kts
08-Nov-20 14:02 47.934578 -124.560654 175 178ft 0kts
08-Nov-20 14:03 47.934992 -124.561017 319 180ft 7kts
08-Nov-20 14:04 47.933551 -124.567444 265 175ft 17kts
08-Nov-20 14:05 47.933503 -124.568203 269 175ft 0kts
08-Nov-20 14:06 47.933503 -124.568203 269 175ft 0kts
08-Nov-20 14:07 47.933501 -124.568303 268 175ft 3kts
08-Nov-20 14:08 47.940015 -124.553591 58 507ft 107kts
08-Nov-20 14:09 47.947969 -124.504938 87 1849ft 132kts
08-Nov-20 14:10 47.944243 -124.447460 137 2914ft 152kts
08-Nov-20 14:11 47.898127 -124.440505 183 3834ft 171kts
08-Nov-20 14:12 47.845205 -124.451247 178 4212ft 178kts
08-Nov-20 14:13 47.794028 -124.447756 164 4432ft 184kts
08-Nov-20 14:14 47.744207 -124.434298 163 4626ft 188kts
08-Nov-20 14:15 47.692389 -124.419656 164 4526ft 190kts
08-Nov-20 14:16 47.641070 -124.405678 162 4628ft 183kts
08-Nov-20 14:17 47.590432 -124.389814 163 4643ft 188kts
08-Nov-20 14:18 47.538885 -124.375774 166 4613ft 191kts
08-Nov-20 14:19 47.486079 -124.365603 167 4622ft 189kts
08-Nov-20 14:20 47.433932 -124.354353 163 4802ft 184kts
08-Nov-20 14:21 47.382937 -124.333903 153 4664ft 187kts
08-Nov-20 14:22 47.334843 -124.307925 146 4855ft 180kts
08-Nov-20 14:23 47.287467 -124.276837 154 4607ft 191kts
08-Nov-20 14:24 47.236809 -124.251110 151 3008ft 179kts
08-Nov-20 14:25 47.196875 -124.223098 151 1488ft 133kts
08-Nov-20 14:26 47.171055 -124.203209 158 811ft 84kts
08-Nov-20 14:27 47.150896 -124.192232 162 207ft 72kts
08-Nov-20 14:28 47.142818 -124.187559 334 5ft 0kts
08-Nov-20 14:29 47.142818 -124.187559 334 5ft 0kts
08-Nov-20 14:30 47.142818 -124.187559 334 5ft 0kts
08-Nov-20 14:31 47.142818 -124.187559 334 5ft 0kts
08-Nov-20 14:32 47.142818 -124.187559 334 5ft 0kts
08-Nov-20 14:33 47.144111 -124.188918 341 15ft 64kts
08-Nov-20 14:34 47.143176 -124.204724 169 1330ft 126kts
08-Nov-20 14:35 47.102268 -124.198956 167 2386ft 149kts
08-Nov-20 14:36 47.055828 -124.186339 164 2757ft 181kts
08-Nov-20 14:37 47.006568 -124.168187 163 2677ft 179kts
08-Nov-20 14:38 46.956284 -124.155548 166 2663ft 173kts
08-Nov-20 14:39 46.908423 -124.138985 162 2766ft 176kts
08-Nov-20 14:40 46.862223 -124.118280 155 3063ft 173kts
08-Nov-20 14:41 46.821600 -124.083458 134 3247ft 171kts
08-Nov-20 14:43 46.789901 -124.030999 124 3033ft 175kts
08-Nov-20 14:44 46.759559 -123.972207 120 2175ft 187kts
08-Nov-20 14:45 46.730350 -123.910099 122 1467ft 177kts
08-Nov-20 14:46 46.700791 -123.853379 133 1302ft 166kts
08-Nov-20 14:47 46.681909 -123.817261 43 838ft 84kts
08-Nov-20 14:48 46.699717 -123.826513 316 68ft 91kts
08-Nov-20 14:49 46.717587 -123.861798 276 1280ft 125kts
08-Nov-20 14:50 46.721739 -123.922668 275 1887ft 155kts
08-Nov-20 14:51 46.721928 -123.994212 275 2427ft 167kts
08-Nov-20 14:52 46.740821 -124.058137 324 3062ft 154kts
08-Nov-20 14:53 46.781042 -124.088299 350 3367ft 149kts
08-Nov-20 14:54 46.823441 -124.097308 356 3560ft 150kts
08-Nov-20 14:55 46.866981 -124.103696 359 3391ft 161kts
08-Nov-20 14:56 46.911543 -124.107174 356 3174ft 166kts
08-Nov-20 14:57 46.958391 -124.111302 4 2588ft 168kts
08-Nov-20 14:58 47.005835 -124.115648 356 1844ft 166kts
08-Nov-20 14:59 47.028557 -124.136681 243 1354ft 87kts
08-Nov-20 14:59 47.012389 -124.145439 172 452ft 81kts
08-Nov-20 15:01 46.988432 -124.140438 192 386ft 82kts
08-Nov-20 15:02 46.998946 -124.134127 345 652ft 98kts
08-Nov-20 15:02 47.011395 -124.146043 176 359ft 81kts
08-Nov-20 15:03 46.989697 -124.142901 196 430ft 87kts
08-Nov-20 15:04 46.988503 -124.139529 347 293ft 75kts
08-Nov-20 15:05 46.999229 -124.143503 258 16ft 11kts
08-Nov-20 15:06 46.999520 -124.143885 70 16ft 0kts
08-Nov-20 15:07 46.999520 -124.143885 70 16ft 0kts
08-Nov-20 15:08 46.999520 -124.143885 70 16ft 0kts
08-Nov-20 15:09 46.999520 -124.143885 70 16ft 0kts
08-Nov-20 15:10 46.999520 -124.143885 70 16ft 0kts
08-Nov-20 15:11 46.999520 -124.143885 70 16ft 0kts
08-Nov-20 15:12 46.999520 -124.143885 70 16ft 0kts
08-Nov-20 15:13 46.999520 -124.143885 70 16ft 0kts
08-Nov-20 15:14 46.999520 -124.143885 70 16ft 0kts
08-Nov-20 15:15 46.999520 -124.143885 70 16ft 0kts
08-Nov-20 15:16 46.999520 -124.143885 70 16ft 0kts
08-Nov-20 15:17 46.999520 -124.143885 70 16ft 0kts
08-Nov-20 15:18 46.999520 -124.143885 70 16ft 0kts
08-Nov-20 15:19 46.999520 -124.143885 70 16ft 0kts

Navigation Log

Ident Type
Flight plan parsing failed, navigation log unavailable